sensor_id;sensor_type;location;lat;lon;timestamp;P1;durP1;ratioP1;P2;durP2;ratioP2
23388;SDS011;11867;51.198;11.966;2023-05-07T00:00:46;9.85;;;7.40;;
23388;SDS011;11867;51.198;11.966;2023-05-07T00:01:47;9.35;;;7.30;;
23388;SDS011;11867;51.198;11.966;2023-05-07T00:02:50;9.73;;;7.72;;
23388;SDS011;11867;51.198;11.966;2023-05-07T00:03:51;9.10;;;7.30;;
23388;SDS011;11867;51.198;11.966;2023-05-07T00:04:54;9.57;;;7.70;;
23388;SDS011;11867;51.198;11.966;2023-05-07T00:05:57;8.57;;;7.18;;
23388;SDS011;11867;51.198;11.966;2023-05-07T00:07:00;9.30;;;7.65;;
23388;SDS011;11867;51.198;11.966;2023-05-07T00:08:02;10.15;;;8.18;;
23388;SDS011;11867;51.198;11.966;2023-05-07T00:09:05;10.00;;;7.90;;
23388;SDS011;11867;51.198;11.966;2023-05-07T00:10:07;10.45;;;8.52;;
23388;SDS011;11867;51.198;11.966;2023-05-07T00:11:11;11.90;;;8.90;;
23388;SDS011;11867;51.198;11.966;2023-05-07T00:12:12;9.52;;;8.13;;
23388;SDS011;11867;51.198;11.966;2023-05-07T00:13:15;10.50;;;8.55;;
23388;SDS011;11867;51.198;11.966;2023-05-07T00:14:16;12.38;;;9.50;;
23388;SDS011;11867;51.198;11.966;2023-05-07T00:15:19;13.13;;;10.48;;
23388;SDS011;11867;51.198;11.966;2023-05-07T00:16:21;10.73;;;9.13;;
23388;SDS011;11867;51.198;11.966;2023-05-07T00:17:23;10.50;;;9.35;;
23388;SDS011;11867;51.198;11.966;2023-05-07T00:18:25;11.38;;;9.60;;
23388;SDS011;11867;51.198;11.966;2023-05-07T00:19:27;10.60;;;9.02;;
23388;SDS011;11867;51.198;11.966;2023-05-07T00:20:29;12.10;;;9.35;;
23388;SDS011;11867;51.198;11.966;2023-05-07T00:21:33;12.55;;;9.93;;
23388;SDS011;11867;51.198;11.966;2023-05-07T00:22:36;11.75;;;9.75;;
23388;SDS011;11867;51.198;11.966;2023-05-07T00:23:38;10.65;;;8.90;;
23388;SDS011;11867;51.198;11.966;2023-05-07T00:24:40;11.35;;;9.52;;
23388;SDS011;11867;51.198;11.966;2023-05-07T00:25:43;13.82;;;9.68;;
23388;SDS011;11867;51.198;11.966;2023-05-07T00:26:44;11.65;;;9.60;;
23388;SDS011;11867;51.198;11.966;2023-05-07T00:27:47;13.65;;;9.85;;
23388;SDS011;11867;51.198;11.966;2023-05-07T00:28:48;10.38;;;9.07;;
23388;SDS011;11867;51.198;11.966;2023-05-07T00:29:51;12.20;;;9.88;;
23388;SDS011;11867;51.198;11.966;2023-05-07T00:30:53;10.43;;;9.43;;
23388;SDS011;11867;51.198;11.966;2023-05-07T00:31:55;9.45;;;8.55;;
23388;SDS011;11867;51.198;11.966;2023-05-07T00:32:57;9.38;;;8.43;;
23388;SDS011;11867;51.198;11.966;2023-05-07T00:34:00;10.77;;;8.85;;
23388;SDS011;11867;51.198;11.966;2023-05-07T00:35:01;10.40;;;8.73;;
23388;SDS011;11867;51.198;11.966;2023-05-07T00:36:04;11.43;;;8.35;;
23388;SDS011;11867;51.198;11.966;2023-05-07T00:37:06;10.15;;;8.27;;
23388;SDS011;11867;51.198;11.966;2023-05-07T00:38:11;9.55;;;8.35;;
23388;SDS011;11867;51.198;11.966;2023-05-07T00:39:12;9.07;;;8.00;;
23388;SDS011;11867;51.198;11.966;2023-05-07T00:40:15;11.15;;;8.13;;
23388;SDS011;11867;51.198;11.966;2023-05-07T00:41:17;9.82;;;7.85;;
23388;SDS011;11867;51.198;11.966;2023-05-07T00:42:19;8.45;;;7.60;;
23388;SDS011;11867;51.198;11.966;2023-05-07T00:43:22;9.50;;;8.20;;
23388;SDS011;11867;51.198;11.966;2023-05-07T00:44:24;8.77;;;7.88;;
23388;SDS011;11867;51.198;11.966;2023-05-07T00:45:26;8.57;;;7.68;;
23388;SDS011;11867;51.198;11.966;2023-05-07T00:46:30;8.75;;;7.40;;
23388;SDS011;11867;51.198;11.966;2023-05-07T00:47:32;8.10;;;7.15;;
23388;SDS011;11867;51.198;11.966;2023-05-07T00:48:34;8.88;;;7.55;;
23388;SDS011;11867;51.198;11.966;2023-05-07T00:49:37;10.88;;;7.78;;
23388;SDS011;11867;51.198;11.966;2023-05-07T00:50:42;9.43;;;7.22;;
23388;SDS011;11867;51.198;11.966;2023-05-07T00:51:44;10.85;;;8.40;;
23388;SDS011;11867;51.198;11.966;2023-05-07T00:52:47;7.95;;;7.15;;
23388;SDS011;11867;51.198;11.966;2023-05-07T00:53:50;7.88;;;7.13;;
23388;SDS011;11867;51.198;11.966;2023-05-07T00:54:53;9.98;;;7.82;;
23388;SDS011;11867;51.198;11.966;2023-05-07T00:55:55;8.48;;;7.25;;
23388;SDS011;11867;51.198;11.966;2023-05-07T00:56:58;8.77;;;7.60;;
23388;SDS011;11867;51.198;11.966;2023-05-07T00:58:00;9.40;;;8.38;;
23388;SDS011;11867;51.198;11.966;2023-05-07T00:59:02;8.95;;;8.05;;
23388;SDS011;11867;51.198;11.966;2023-05-07T01:00:05;10.13;;;8.02;;
23388;SDS011;11867;51.198;11.966;2023-05-07T01:01:09;9.93;;;8.55;;
23388;SDS011;11867;51.198;11.966;2023-05-07T01:02:12;9.70;;;8.70;;
23388;SDS011;11867;51.198;11.966;2023-05-07T01:03:13;11.98;;;8.45;;
23388;SDS011;11867;51.198;11.966;2023-05-07T01:04:16;9.88;;;8.70;;
23388;SDS011;11867;51.198;11.966;2023-05-07T01:05:18;10.43;;;8.82;;
23388;SDS011;11867;51.198;11.966;2023-05-07T01:06:24;9.00;;;8.10;;
23388;SDS011;11867;51.198;11.966;2023-05-07T01:07:29;9.85;;;8.23;;
23388;SDS011;11867;51.198;11.966;2023-05-07T01:08:32;9.88;;;7.95;;
23388;SDS011;11867;51.198;11.966;2023-05-07T01:09:37;10.73;;;8.90;;
23388;SDS011;11867;51.198;11.966;2023-05-07T01:10:40;12.32;;;9.32;;
23388;SDS011;11867;51.198;11.966;2023-05-07T01:11:44;11.65;;;9.15;;
23388;SDS011;11867;51.198;11.966;2023-05-07T01:12:46;10.68;;;8.82;;
23388;SDS011;11867;51.198;11.966;2023-05-07T01:13:49;10.68;;;9.48;;
23388;SDS011;11867;51.198;11.966;2023-05-07T01:14:53;13.88;;;9.73;;
23388;SDS011;11867;51.198;11.966;2023-05-07T01:15:55;14.93;;;10.25;;
23388;SDS011;11867;51.198;11.966;2023-05-07T01:16:57;12.02;;;9.93;;
23388;SDS011;11867;51.198;11.966;2023-05-07T01:17:59;13.18;;;10.27;;
23388;SDS011;11867;51.198;11.966;2023-05-07T01:19:02;12.55;;;9.60;;
23388;SDS011;11867;51.198;11.966;2023-05-07T01:20:04;12.63;;;10.10;;
23388;SDS011;11867;51.198;11.966;2023-05-07T01:21:09;13.10;;;10.38;;
23388;SDS011;11867;51.198;11.966;2023-05-07T01:22:12;11.90;;;10.57;;
23388;SDS011;11867;51.198;11.966;2023-05-07T01:23:19;12.63;;;10.63;;
23388;SDS011;11867;51.198;11.966;2023-05-07T01:24:21;14.10;;;11.32;;
23388;SDS011;11867;51.198;11.966;2023-05-07T01:25:24;15.80;;;11.60;;
23388;SDS011;11867;51.198;11.966;2023-05-07T01:26:27;13.50;;;11.43;;
23388;SDS011;11867;51.198;11.966;2023-05-07T01:27:29;14.63;;;11.48;;
23388;SDS011;11867;51.198;11.966;2023-05-07T01:28:31;15.10;;;11.48;;
23388;SDS011;11867;51.198;11.966;2023-05-07T01:29:33;15.82;;;11.65;;
23388;SDS011;11867;51.198;11.966;2023-05-07T01:30:35;13.95;;;11.65;;
23388;SDS011;11867;51.198;11.966;2023-05-07T01:31:38;16.13;;;11.68;;
23388;SDS011;11867;51.198;11.966;2023-05-07T01:32:42;16.60;;;11.75;;
23388;SDS011;11867;51.198;11.966;2023-05-07T01:33:48;18.50;;;13.52;;
23388;SDS011;11867;51.198;11.966;2023-05-07T01:34:52;17.15;;;12.57;;
23388;SDS011;11867;51.198;11.966;2023-05-07T01:35:56;15.65;;;12.10;;
23388;SDS011;11867;51.198;11.966;2023-05-07T01:36:59;14.02;;;11.38;;
23388;SDS011;11867;51.198;11.966;2023-05-07T01:38:02;16.25;;;11.88;;
23388;SDS011;11867;51.198;11.966;2023-05-07T01:39:07;17.58;;;11.77;;
23388;SDS011;11867;51.198;11.966;2023-05-07T01:40:11;15.55;;;12.07;;
23388;SDS011;11867;51.198;11.966;2023-05-07T01:41:13;13.25;;;11.20;;
23388;SDS011;11867;51.198;11.966;2023-05-07T01:42:16;16.02;;;11.77;;
23388;SDS011;11867;51.198;11.966;2023-05-07T01:43:17;14.63;;;11.98;;
23388;SDS011;11867;51.198;11.966;2023-05-07T01:44:20;14.73;;;11.27;;
23388;SDS011;11867;51.198;11.966;2023-05-07T01:45:23;15.75;;;11.20;;
23388;SDS011;11867;51.198;11.966;2023-05-07T01:46:26;15.98;;;11.63;;
23388;SDS011;11867;51.198;11.966;2023-05-07T01:47:28;13.77;;;10.32;;
23388;SDS011;11867;51.198;11.966;2023-05-07T01:48:32;13.40;;;11.05;;
23388;SDS011;11867;51.198;11.966;2023-05-07T01:49:34;13.57;;;10.35;;
23388;SDS011;11867;51.198;11.966;2023-05-07T01:50:37;15.40;;;11.75;;
23388;SDS011;11867;51.198;11.966;2023-05-07T01:51:39;12.50;;;10.50;;
23388;SDS011;11867;51.198;11.966;2023-05-07T01:52:42;12.50;;;10.60;;
23388;SDS011;11867;51.198;11.966;2023-05-07T01:53:44;14.02;;;10.55;;
23388;SDS011;11867;51.198;11.966;2023-05-07T01:54:50;16.15;;;10.32;;
23388;SDS011;11867;51.198;11.966;2023-05-07T01:55:51;13.15;;;10.13;;
23388;SDS011;11867;51.198;11.966;2023-05-07T01:56:55;13.85;;;10.02;;
23388;SDS011;11867;51.198;11.966;2023-05-07T01:57:57;11.32;;;9.75;;
23388;SDS011;11867;51.198;11.966;2023-05-07T01:59:00;12.48;;;9.80;;
23388;SDS011;11867;51.198;11.966;2023-05-07T02:00:02;11.57;;;9.95;;
23388;SDS011;11867;51.198;11.966;2023-05-07T02:01:07;12.00;;;9.90;;
23388;SDS011;11867;51.198;11.966;2023-05-07T02:02:09;13.55;;;9.70;;
23388;SDS011;11867;51.198;11.966;2023-05-07T02:03:11;13.32;;;10.60;;
23388;SDS011;11867;51.198;11.966;2023-05-07T02:04:13;14.40;;;10.88;;
23388;SDS011;11867;51.198;11.966;2023-05-07T02:05:16;11.63;;;10.02;;
23388;SDS011;11867;51.198;11.966;2023-05-07T02:06:17;10.68;;;9.52;;
23388;SDS011;11867;51.198;11.966;2023-05-07T02:07:20;13.98;;;9.88;;
23388;SDS011;11867;51.198;11.966;2023-05-07T02:08:22;15.07;;;10.70;;
23388;SDS011;11867;51.198;11.966;2023-05-07T02:09:24;12.40;;;9.40;;
23388;SDS011;11867;51.198;11.966;2023-05-07T02:10:27;13.80;;;9.30;;
23388;SDS011;11867;51.198;11.966;2023-05-07T02:11:29;11.98;;;9.52;;
23388;SDS011;11867;51.198;11.966;2023-05-07T02:12:31;13.70;;;10.10;;
23388;SDS011;11867;51.198;11.966;2023-05-07T02:13:34;13.85;;;10.00;;
23388;SDS011;11867;51.198;11.966;2023-05-07T02:14:36;12.75;;;9.77;;
23388;SDS011;11867;51.198;11.966;2023-05-07T02:15:38;12.40;;;8.95;;
23388;SDS011;11867;51.198;11.966;2023-05-07T02:16:40;11.73;;;9.65;;
23388;SDS011;11867;51.198;11.966;2023-05-07T02:17:57;20.58;;;9.68;;
23388;SDS011;11867;51.198;11.966;2023-05-07T02:19:00;11.85;;;8.90;;
23388;SDS011;11867;51.198;11.966;2023-05-07T02:20:02;13.93;;;9.38;;
23388;SDS011;11867;51.198;11.966;2023-05-07T02:21:04;9.95;;;8.68;;
23388;SDS011;11867;51.198;11.966;2023-05-07T02:22:07;10.48;;;8.75;;
23388;SDS011;11867;51.198;11.966;2023-05-07T02:23:09;11.07;;;8.93;;
23388;SDS011;11867;51.198;11.966;2023-05-07T02:24:11;10.13;;;8.68;;
23388;SDS011;11867;51.198;11.966;2023-05-07T02:25:13;12.63;;;9.65;;
23388;SDS011;11867;51.198;11.966;2023-05-07T02:26:17;15.32;;;8.93;;
23388;SDS011;11867;51.198;11.966;2023-05-07T02:27:19;9.85;;;8.80;;
23388;SDS011;11867;51.198;11.966;2023-05-07T02:28:21;11.55;;;9.45;;
23388;SDS011;11867;51.198;11.966;2023-05-07T02:29:23;10.85;;;8.95;;
23388;SDS011;11867;51.198;11.966;2023-05-07T02:30:26;10.15;;;8.65;;
23388;SDS011;11867;51.198;11.966;2023-05-07T02:31:28;10.18;;;8.45;;
23388;SDS011;11867;51.198;11.966;2023-05-07T02:32:30;11.30;;;9.30;;
23388;SDS011;11867;51.198;11.966;2023-05-07T02:33:32;10.57;;;8.95;;
23388;SDS011;11867;51.198;11.966;2023-05-07T02:34:36;10.02;;;8.60;;
23388;SDS011;11867;51.198;11.966;2023-05-07T02:35:37;11.02;;;8.93;;
23388;SDS011;11867;51.198;11.966;2023-05-07T02:36:40;11.27;;;8.70;;
23388;SDS011;11867;51.198;11.966;2023-05-07T02:37:41;10.45;;;8.27;;
23388;SDS011;11867;51.198;11.966;2023-05-07T02:38:44;11.90;;;9.32;;
23388;SDS011;11867;51.198;11.966;2023-05-07T02:39:45;11.13;;;9.93;;
23388;SDS011;11867;51.198;11.966;2023-05-07T02:40:48;11.27;;;9.00;;
23388;SDS011;11867;51.198;11.966;2023-05-07T02:41:51;12.80;;;9.73;;
23388;SDS011;11867;51.198;11.966;2023-05-07T02:42:53;11.10;;;9.07;;
23388;SDS011;11867;51.198;11.966;2023-05-07T02:43:55;10.95;;;9.30;;
23388;SDS011;11867;51.198;11.966;2023-05-07T02:44:57;10.80;;;9.25;;
23388;SDS011;11867;51.198;11.966;2023-05-07T02:46:02;12.35;;;10.10;;
23388;SDS011;11867;51.198;11.966;2023-05-07T02:47:05;10.93;;;9.18;;
23388;SDS011;11867;51.198;11.966;2023-05-07T02:48:09;10.75;;;8.73;;
23388;SDS011;11867;51.198;11.966;2023-05-07T02:49:12;9.57;;;8.52;;
23388;SDS011;11867;51.198;11.966;2023-05-07T02:50:13;11.93;;;9.45;;
23388;SDS011;11867;51.198;11.966;2023-05-07T02:51:17;12.27;;;9.68;;
23388;SDS011;11867;51.198;11.966;2023-05-07T02:52:22;12.82;;;9.40;;
23388;SDS011;11867;51.198;11.966;2023-05-07T02:53:24;12.57;;;9.98;;
23388;SDS011;11867;51.198;11.966;2023-05-07T02:54:27;12.52;;;9.80;;
23388;SDS011;11867;51.198;11.966;2023-05-07T02:55:29;12.48;;;9.30;;
23388;SDS011;11867;51.198;11.966;2023-05-07T02:56:31;12.35;;;9.48;;
23388;SDS011;11867;51.198;11.966;2023-05-07T02:57:35;11.95;;;9.68;;
23388;SDS011;11867;51.198;11.966;2023-05-07T02:58:36;12.73;;;9.85;;
23388;SDS011;11867;51.198;11.966;2023-05-07T02:59:41;11.25;;;9.48;;
23388;SDS011;11867;51.198;11.966;2023-05-07T03:00:42;11.43;;;9.30;;
23388;SDS011;11867;51.198;11.966;2023-05-07T03:01:45;11.70;;;9.60;;
23388;SDS011;11867;51.198;11.966;2023-05-07T03:02:47;11.63;;;9.90;;
23388;SDS011;11867;51.198;11.966;2023-05-07T03:03:49;11.48;;;9.93;;
23388;SDS011;11867;51.198;11.966;2023-05-07T03:04:51;12.48;;;9.80;;
23388;SDS011;11867;51.198;11.966;2023-05-07T03:05:53;13.95;;;10.77;;
23388;SDS011;11867;51.198;11.966;2023-05-07T03:06:55;11.98;;;10.27;;
23388;SDS011;11867;51.198;11.966;2023-05-07T03:07:57;12.95;;;10.60;;
23388;SDS011;11867;51.198;11.966;2023-05-07T03:08:59;13.60;;;10.30;;
23388;SDS011;11867;51.198;11.966;2023-05-07T03:10:01;12.45;;;9.55;;
23388;SDS011;11867;51.198;11.966;2023-05-07T03:11:03;11.45;;;10.25;;
23388;SDS011;11867;51.198;11.966;2023-05-07T03:12:06;11.23;;;9.93;;
23388;SDS011;11867;51.198;11.966;2023-05-07T03:13:09;12.23;;;9.68;;
23388;SDS011;11867;51.198;11.966;2023-05-07T03:14:11;12.57;;;10.60;;
23388;SDS011;11867;51.198;11.966;2023-05-07T03:15:13;11.38;;;10.00;;
23388;SDS011;11867;51.198;11.966;2023-05-07T03:16:15;12.45;;;10.25;;
23388;SDS011;11867;51.198;11.966;2023-05-07T03:17:17;14.15;;;9.90;;
23388;SDS011;11867;51.198;11.966;2023-05-07T03:18:20;12.57;;;10.95;;
23388;SDS011;11867;51.198;11.966;2023-05-07T03:19:21;12.48;;;10.32;;
23388;SDS011;11867;51.198;11.966;2023-05-07T03:20:24;12.48;;;10.05;;
23388;SDS011;11867;51.198;11.966;2023-05-07T03:21:25;14.77;;;11.25;;
23388;SDS011;11867;51.198;11.966;2023-05-07T03:22:28;12.25;;;10.48;;
23388;SDS011;11867;51.198;11.966;2023-05-07T03:23:29;12.88;;;10.95;;
23388;SDS011;11867;51.198;11.966;2023-05-07T03:24:32;12.93;;;11.18;;
23388;SDS011;11867;51.198;11.966;2023-05-07T03:25:34;13.82;;;11.27;;
23388;SDS011;11867;51.198;11.966;2023-05-07T03:26:36;12.60;;;11.25;;
23388;SDS011;11867;51.198;11.966;2023-05-07T03:27:38;14.10;;;11.23;;
23388;SDS011;11867;51.198;11.966;2023-05-07T03:28:42;13.82;;;11.75;;
23388;SDS011;11867;51.198;11.966;2023-05-07T03:29:43;13.05;;;11.18;;
23388;SDS011;11867;51.198;11.966;2023-05-07T03:30:46;12.70;;;10.70;;
23388;SDS011;11867;51.198;11.966;2023-05-07T03:31:47;13.60;;;11.18;;
23388;SDS011;11867;51.198;11.966;2023-05-07T03:32:50;12.38;;;10.38;;
23388;SDS011;11867;51.198;11.966;2023-05-07T03:33:52;14.07;;;10.90;;
23388;SDS011;11867;51.198;11.966;2023-05-07T03:34:55;16.58;;;11.25;;
23388;SDS011;11867;51.198;11.966;2023-05-07T03:35:57;14.48;;;11.70;;
23388;SDS011;11867;51.198;11.966;2023-05-07T03:36:59;14.40;;;11.55;;
23388;SDS011;11867;51.198;11.966;2023-05-07T03:38:02;18.42;;;12.15;;
23388;SDS011;11867;51.198;11.966;2023-05-07T03:39:03;14.38;;;11.82;;
23388;SDS011;11867;51.198;11.966;2023-05-07T03:40:07;14.55;;;10.38;;
23388;SDS011;11867;51.198;11.966;2023-05-07T03:41:09;15.05;;;11.93;;
23388;SDS011;11867;51.198;11.966;2023-05-07T03:42:11;15.43;;;11.82;;
23388;SDS011;11867;51.198;11.966;2023-05-07T03:43:13;16.77;;;12.68;;
23388;SDS011;11867;51.198;11.966;2023-05-07T03:44:17;14.50;;;11.23;;
23388;SDS011;11867;51.198;11.966;2023-05-07T03:45:18;16.13;;;12.30;;
23388;SDS011;11867;51.198;11.966;2023-05-07T03:46:21;15.82;;;11.95;;
23388;SDS011;11867;51.198;11.966;2023-05-07T03:47:29;17.50;;;11.82;;
23388;SDS011;11867;51.198;11.966;2023-05-07T03:48:31;17.38;;;12.45;;
23388;SDS011;11867;51.198;11.966;2023-05-07T03:49:33;14.30;;;12.32;;
23388;SDS011;11867;51.198;11.966;2023-05-07T03:50:36;18.42;;;13.15;;
23388;SDS011;11867;51.198;11.966;2023-05-07T03:51:39;17.05;;;13.18;;
23388;SDS011;11867;51.198;11.966;2023-05-07T03:52:42;14.32;;;12.48;;
23388;SDS011;11867;51.198;11.966;2023-05-07T03:53:43;15.10;;;13.45;;
23388;SDS011;11867;51.198;11.966;2023-05-07T03:54:46;19.42;;;13.20;;
23388;SDS011;11867;51.198;11.966;2023-05-07T03:55:47;20.30;;;14.10;;
23388;SDS011;11867;51.198;11.966;2023-05-07T03:56:50;17.40;;;14.15;;
23388;SDS011;11867;51.198;11.966;2023-05-07T03:57:51;17.30;;;12.60;;
23388;SDS011;11867;51.198;11.966;2023-05-07T03:58:54;17.42;;;12.20;;
23388;SDS011;11867;51.198;11.966;2023-05-07T03:59:57;18.83;;;13.52;;
23388;SDS011;11867;51.198;11.966;2023-05-07T04:01:00;20.17;;;13.80;;
23388;SDS011;11867;51.198;11.966;2023-05-07T04:02:02;16.27;;;13.35;;
23388;SDS011;11867;51.198;11.966;2023-05-07T04:03:06;20.40;;;14.13;;
23388;SDS011;11867;51.198;11.966;2023-05-07T04:04:07;18.98;;;14.45;;
23388;SDS011;11867;51.198;11.966;2023-05-07T04:05:10;19.02;;;14.10;;
23388;SDS011;11867;51.198;11.966;2023-05-07T04:06:11;18.70;;;13.88;;
23388;SDS011;11867;51.198;11.966;2023-05-07T04:07:14;17.15;;;13.48;;
23388;SDS011;11867;51.198;11.966;2023-05-07T04:08:16;21.70;;;13.75;;
23388;SDS011;11867;51.198;11.966;2023-05-07T04:09:18;18.88;;;13.88;;
23388;SDS011;11867;51.198;11.966;2023-05-07T04:10:20;18.83;;;14.23;;
23388;SDS011;11867;51.198;11.966;2023-05-07T04:11:22;21.25;;;14.48;;
23388;SDS011;11867;51.198;11.966;2023-05-07T04:12:24;19.00;;;15.13;;
23388;SDS011;11867;51.198;11.966;2023-05-07T04:13:26;17.02;;;13.57;;
23388;SDS011;11867;51.198;11.966;2023-05-07T04:14:28;17.98;;;14.00;;
23388;SDS011;11867;51.198;11.966;2023-05-07T04:15:32;19.50;;;15.07;;
23388;SDS011;11867;51.198;11.966;2023-05-07T04:16:34;19.17;;;15.05;;
23388;SDS011;11867;51.198;11.966;2023-05-07T04:17:37;19.38;;;14.23;;
23388;SDS011;11867;51.198;11.966;2023-05-07T04:18:39;19.75;;;14.43;;
23388;SDS011;11867;51.198;11.966;2023-05-07T04:19:41;21.00;;;14.65;;
23388;SDS011;11867;51.198;11.966;2023-05-07T04:20:46;18.05;;;14.43;;
23388;SDS011;11867;51.198;11.966;2023-05-07T04:21:50;17.10;;;13.90;;
23388;SDS011;11867;51.198;11.966;2023-05-07T04:22:52;25.77;;;16.15;;
23388;SDS011;11867;51.198;11.966;2023-05-07T04:23:54;18.98;;;15.05;;
23388;SDS011;11867;51.198;11.966;2023-05-07T04:24:56;18.80;;;14.65;;
23388;SDS011;11867;51.198;11.966;2023-05-07T04:25:58;19.48;;;15.70;;
23388;SDS011;11867;51.198;11.966;2023-05-07T04:27:02;21.38;;;15.52;;
23388;SDS011;11867;51.198;11.966;2023-05-07T04:28:03;17.83;;;14.73;;
23388;SDS011;11867;51.198;11.966;2023-05-07T04:29:07;17.63;;;15.45;;
23388;SDS011;11867;51.198;11.966;2023-05-07T04:30:09;22.45;;;16.40;;
23388;SDS011;11867;51.198;11.966;2023-05-07T04:31:14;22.63;;;15.88;;
23388;SDS011;11867;51.198;11.966;2023-05-07T04:32:16;20.55;;;15.60;;
23388;SDS011;11867;51.198;11.966;2023-05-07T04:33:18;20.38;;;15.65;;
23388;SDS011;11867;51.198;11.966;2023-05-07T04:34:20;20.95;;;15.35;;
23388;SDS011;11867;51.198;11.966;2023-05-07T04:35:22;18.30;;;14.82;;
23388;SDS011;11867;51.198;11.966;2023-05-07T04:36:24;20.85;;;16.00;;
23388;SDS011;11867;51.198;11.966;2023-05-07T04:37:28;20.55;;;16.10;;
23388;SDS011;11867;51.198;11.966;2023-05-07T04:38:30;19.67;;;15.68;;
23388;SDS011;11867;51.198;11.966;2023-05-07T04:39:33;20.45;;;15.82;;
23388;SDS011;11867;51.198;11.966;2023-05-07T04:40:36;18.52;;;14.90;;
23388;SDS011;11867;51.198;11.966;2023-05-07T04:41:40;18.85;;;15.32;;
23388;SDS011;11867;51.198;11.966;2023-05-07T04:42:41;20.55;;;16.23;;
23388;SDS011;11867;51.198;11.966;2023-05-07T04:43:44;19.27;;;15.25;;
23388;SDS011;11867;51.198;11.966;2023-05-07T04:44:45;22.23;;;16.65;;
23388;SDS011;11867;51.198;11.966;2023-05-07T04:45:49;22.13;;;16.42;;
23388;SDS011;11867;51.198;11.966;2023-05-07T04:46:53;21.77;;;16.20;;
23388;SDS011;11867;51.198;11.966;2023-05-07T04:47:55;20.08;;;16.25;;
23388;SDS011;11867;51.198;11.966;2023-05-07T04:48:57;21.10;;;15.55;;
23388;SDS011;11867;51.198;11.966;2023-05-07T04:49:59;20.50;;;16.05;;
23388;SDS011;11867;51.198;11.966;2023-05-07T04:51:01;21.25;;;16.45;;
23388;SDS011;11867;51.198;11.966;2023-05-07T04:52:03;22.38;;;16.88;;
23388;SDS011;11867;51.198;11.966;2023-05-07T04:53:05;21.52;;;16.33;;
23388;SDS011;11867;51.198;11.966;2023-05-07T04:54:07;20.75;;;16.50;;
23388;SDS011;11867;51.198;11.966;2023-05-07T04:55:10;21.13;;;16.83;;
23388;SDS011;11867;51.198;11.966;2023-05-07T04:56:12;21.55;;;16.88;;
23388;SDS011;11867;51.198;11.966;2023-05-07T04:57:14;20.30;;;16.08;;
23388;SDS011;11867;51.198;11.966;2023-05-07T04:58:18;21.30;;;16.67;;
23388;SDS011;11867;51.198;11.966;2023-05-07T04:59:20;20.88;;;16.67;;
23388;SDS011;11867;51.198;11.966;2023-05-07T05:00:22;21.63;;;16.02;;
23388;SDS011;11867;51.198;11.966;2023-05-07T05:01:24;18.95;;;15.60;;
23388;SDS011;11867;51.198;11.966;2023-05-07T05:02:27;21.92;;;16.77;;
23388;SDS011;11867;51.198;11.966;2023-05-07T05:03:30;19.50;;;16.10;;
23388;SDS011;11867;51.198;11.966;2023-05-07T05:04:32;18.83;;;15.75;;
23388;SDS011;11867;51.198;11.966;2023-05-07T05:05:34;19.08;;;14.90;;
23388;SDS011;11867;51.198;11.966;2023-05-07T05:06:36;23.10;;;16.48;;
23388;SDS011;11867;51.198;11.966;2023-05-07T05:07:38;19.00;;;15.77;;
23388;SDS011;11867;51.198;11.966;2023-05-07T05:08:40;19.63;;;16.42;;
23388;SDS011;11867;51.198;11.966;2023-05-07T05:09:42;22.10;;;16.30;;
23388;SDS011;11867;51.198;11.966;2023-05-07T05:10:44;21.40;;;16.38;;
23388;SDS011;11867;51.198;11.966;2023-05-07T05:11:46;17.80;;;15.88;;
23388;SDS011;11867;51.198;11.966;2023-05-07T05:12:48;20.63;;;16.13;;
23388;SDS011;11867;51.198;11.966;2023-05-07T05:13:50;20.00;;;15.63;;
23388;SDS011;11867;51.198;11.966;2023-05-07T05:14:52;19.77;;;16.48;;
23388;SDS011;11867;51.198;11.966;2023-05-07T05:15:55;19.52;;;15.68;;
23388;SDS011;11867;51.198;11.966;2023-05-07T05:16:57;20.08;;;15.35;;
23388;SDS011;11867;51.198;11.966;2023-05-07T05:18:00;16.42;;;13.45;;
23388;SDS011;11867;51.198;11.966;2023-05-07T05:19:02;18.20;;;13.25;;
23388;SDS011;11867;51.198;11.966;2023-05-07T05:20:05;21.27;;;15.13;;
23388;SDS011;11867;51.198;11.966;2023-05-07T05:21:07;17.05;;;14.40;;
23388;SDS011;11867;51.198;11.966;2023-05-07T05:22:10;17.85;;;14.23;;
23388;SDS011;11867;51.198;11.966;2023-05-07T05:23:11;16.10;;;14.00;;
23388;SDS011;11867;51.198;11.966;2023-05-07T05:24:14;17.10;;;14.88;;
23388;SDS011;11867;51.198;11.966;2023-05-07T05:25:16;17.48;;;13.90;;
23388;SDS011;11867;51.198;11.966;2023-05-07T05:26:18;16.77;;;13.25;;
23388;SDS011;11867;51.198;11.966;2023-05-07T05:27:22;17.40;;;14.43;;
23388;SDS011;11867;51.198;11.966;2023-05-07T05:28:24;19.45;;;15.00;;
23388;SDS011;11867;51.198;11.966;2023-05-07T05:29:26;17.70;;;14.73;;
23388;SDS011;11867;51.198;11.966;2023-05-07T05:30:29;18.55;;;14.88;;
23388;SDS011;11867;51.198;11.966;2023-05-07T05:31:30;18.75;;;15.25;;
23388;SDS011;11867;51.198;11.966;2023-05-07T05:32:33;17.08;;;15.13;;
23388;SDS011;11867;51.198;11.966;2023-05-07T05:33:36;20.20;;;14.80;;
23388;SDS011;11867;51.198;11.966;2023-05-07T05:34:38;18.88;;;15.20;;
23388;SDS011;11867;51.198;11.966;2023-05-07T05:35:40;18.95;;;14.73;;
23388;SDS011;11867;51.198;11.966;2023-05-07T05:36:43;19.48;;;15.65;;
23388;SDS011;11867;51.198;11.966;2023-05-07T05:37:44;18.55;;;15.13;;
23388;SDS011;11867;51.198;11.966;2023-05-07T05:38:47;18.75;;;15.85;;
23388;SDS011;11867;51.198;11.966;2023-05-07T05:39:48;20.95;;;16.13;;
23388;SDS011;11867;51.198;11.966;2023-05-07T05:40:51;18.17;;;14.88;;
23388;SDS011;11867;51.198;11.966;2023-05-07T05:41:56;22.10;;;15.48;;
23388;SDS011;11867;51.198;11.966;2023-05-07T05:42:59;18.13;;;15.23;;
23388;SDS011;11867;51.198;11.966;2023-05-07T05:44:00;20.75;;;16.00;;
23388;SDS011;11867;51.198;11.966;2023-05-07T05:45:03;21.38;;;16.00;;
23388;SDS011;11867;51.198;11.966;2023-05-07T05:46:05;19.27;;;15.65;;
23388;SDS011;11867;51.198;11.966;2023-05-07T05:47:10;18.30;;;14.80;;
23388;SDS011;11867;51.198;11.966;2023-05-07T05:48:11;18.77;;;15.60;;
23388;SDS011;11867;51.198;11.966;2023-05-07T05:49:15;19.63;;;14.82;;
23388;SDS011;11867;51.198;11.966;2023-05-07T05:50:17;21.35;;;15.70;;
23388;SDS011;11867;51.198;11.966;2023-05-07T05:51:20;18.13;;;15.35;;
23388;SDS011;11867;51.198;11.966;2023-05-07T05:52:21;17.75;;;14.50;;
23388;SDS011;11867;51.198;11.966;2023-05-07T05:53:25;18.05;;;14.50;;
23388;SDS011;11867;51.198;11.966;2023-05-07T05:54:26;19.25;;;14.50;;
23388;SDS011;11867;51.198;11.966;2023-05-07T05:55:29;16.77;;;14.25;;
23388;SDS011;11867;51.198;11.966;2023-05-07T05:56:33;18.23;;;14.77;;
23388;SDS011;11867;51.198;11.966;2023-05-07T05:57:35;18.65;;;14.35;;
23388;SDS011;11867;51.198;11.966;2023-05-07T05:58:37;19.38;;;15.23;;
23388;SDS011;11867;51.198;11.966;2023-05-07T05:59:40;16.75;;;14.38;;
23388;SDS011;11867;51.198;11.966;2023-05-07T06:00:41;17.20;;;13.73;;
23388;SDS011;11867;51.198;11.966;2023-05-07T06:01:44;18.85;;;14.23;;
23388;SDS011;11867;51.198;11.966;2023-05-07T06:02:45;15.35;;;13.07;;
23388;SDS011;11867;51.198;11.966;2023-05-07T06:03:48;17.15;;;14.00;;